GOOY/DKR METAR and TAF weather

Enter ICAO airport designator
Station Type Date Time Source
GOOY METAR 2024/07/13 03:00 UTC NOAA

GOOY 130300Z 28006KT 240V330 9999 BKN013 27/24 Q1012


Station Type Date Time Source
GOOY Decoded METAR 2024/07/13 03:00 UTC NOAA

Dakar / Yoff, Senegal (GOOY) 14-44N 017-30W 24M
Jul 12, 2024 - 11:00 PM EDT / 2024.07.13 0300 UTC
Wind: from the W (280 degrees) at 7 MPH (6 KT) (direction variable):0
Visibility: greater than 7 mile(s):0
Sky conditions: mostly cloudy
Temperature: 80 F (27 C)
Dew Point: 75 F (24 C)
Relative Humidity: 83%
Pressure (altimeter): 29.88 in. Hg (1012 hPa)
ob: GOOY 130300Z 28006KT 240V330 9999 BKN013 27/24 Q1012
cycle: 3

Station Type Date Time Source
GOOY TAF 2024/07/12 18:48 UTC NOAA